Kathwood, South Carolina
Current Conditions -  °F | °C
As of 9:56 AM on Friday 19 Dec 2014 (Local Time) from KCAE Reporting Station
Scattered Clouds Scattered Clouds  
Wind Chill: 47°   Ceiling: Unl
Heat Index: 49°   Visibility: 10mi
Dew Point: 38°   Wind: 6mph
Humidity: 66%   Direction: 80°E
Pressure: 30.17"   Gusts: NA
Location:  33.9973°N, 81.0998°W
Report Text: KCAE 191456Z 08005KT 10SM SCT220 09/03 A3017 RMK AO2 SLP215 T00940033 51019
Loading
Personal Weather Stations






























Interactive Weather Map New forecast layout! Learn more

10-Day Weather Forecast

Advertisements
Track Severe Weather on mobile